createdAt,value
2023-05-05T00:01:36.026Z,14.79
2023-05-05T00:04:03.126Z,14.65
2023-05-05T00:06:31.201Z,14.66
2023-05-05T00:08:58.304Z,14.69
2023-05-05T00:11:26.311Z,14.63
2023-05-05T00:13:53.156Z,14.69
2023-05-05T00:16:20.046Z,14.61
2023-05-05T00:18:47.292Z,14.55
2023-05-05T00:21:14.382Z,14.35
2023-05-05T00:23:41.430Z,14.25
2023-05-05T00:26:08.567Z,14.27
2023-05-05T00:28:35.370Z,14.33
2023-05-05T00:31:02.310Z,14.23
2023-05-05T00:33:29.616Z,14.26
2023-05-05T00:35:56.634Z,14.20
2023-05-05T00:38:23.453Z,14.14
2023-05-05T00:40:52.827Z,14.21
2023-05-05T00:43:19.693Z,14.16
2023-05-05T00:45:48.019Z,14.16
2023-05-05T00:48:16.974Z,14.16
2023-05-05T00:50:44.999Z,14.20
2023-05-05T00:53:12.549Z,14.23
2023-05-05T00:55:39.380Z,14.26
2023-05-05T00:58:06.474Z,14.36
2023-05-05T01:00:35.081Z,14.30
2023-05-05T01:03:02.188Z,14.31
2023-05-05T01:05:47.577Z,14.29
2023-05-05T01:09:02.073Z,14.31
2023-05-05T01:11:41.294Z,14.38
2023-05-05T01:14:18.721Z,14.24
2023-05-05T01:16:58.993Z,14.23
2023-05-05T01:19:50.917Z,14.35
2023-05-05T01:22:24.705Z,14.34
2023-05-05T01:25:49.383Z,14.45
2023-05-05T01:29:07.465Z,14.38
2023-05-05T01:31:54.682Z,14.44
2023-05-05T01:34:28.921Z,14.42
2023-05-05T01:37:11.544Z,14.41
2023-05-05T01:39:41.467Z,14.30
2023-05-05T01:42:15.033Z,14.17
2023-05-05T01:44:44.525Z,14.18
2023-05-05T01:47:19.444Z,14.32
2023-05-05T01:49:48.577Z,14.24
2023-05-05T01:52:17.507Z,14.18
2023-05-05T01:54:46.645Z,14.16
2023-05-05T01:57:16.876Z,14.09
2023-05-05T01:59:43.715Z,14.05
2023-05-05T02:02:13.112Z,14.25
2023-05-05T02:04:43.653Z,14.36
2023-05-05T02:07:16.289Z,14.39
2023-05-05T02:09:45.268Z,14.29
2023-05-05T02:12:13.167Z,14.23
2023-05-05T02:14:44.056Z,14.11
2023-05-05T02:17:13.108Z,14.14
2023-05-05T02:19:45.666Z,14.14
2023-05-05T02:22:16.821Z,14.14
2023-05-05T02:24:44.531Z,14.05
2023-05-05T02:27:14.165Z,14.08
2023-05-05T02:29:56.594Z,14.11
2023-05-05T02:32:59.720Z,14.26
2023-05-05T02:35:35.643Z,14.37
2023-05-05T02:38:05.966Z,14.39
2023-05-05T02:40:35.514Z,14.38
2023-05-05T02:43:09.694Z,14.30
2023-05-05T02:45:36.683Z,14.28
2023-05-05T02:48:04.572Z,14.24
2023-05-05T02:50:32.193Z,14.22
2023-05-05T02:53:00.558Z,14.29
2023-05-05T02:55:39.675Z,14.35
2023-05-05T02:58:29.038Z,14.35
2023-05-05T03:01:33.070Z,14.36
2023-05-05T03:04:09.998Z,14.29
2023-05-05T03:06:43.330Z,14.28
2023-05-05T03:09:31.131Z,14.19
2023-05-05T03:12:08.213Z,14.15
2023-05-05T03:14:43.172Z,14.12
2023-05-05T03:17:12.734Z,14.12
2023-05-05T03:19:43.333Z,14.18
2023-05-05T03:22:10.626Z,14.18
2023-05-05T03:24:49.931Z,14.23
2023-05-05T03:27:17.122Z,14.27
2023-05-05T03:29:43.971Z,14.25
2023-05-05T03:32:10.882Z,14.18
2023-05-05T03:34:39.353Z,14.06
2023-05-05T03:37:06.127Z,13.98
2023-05-05T03:39:33.217Z,13.93
2023-05-05T03:42:00.095Z,13.94
2023-05-05T03:44:26.881Z,13.97
2023-05-05T03:46:53.910Z,14.09
2023-05-05T03:49:20.707Z,14.16
2023-05-05T03:51:47.509Z,14.17
2023-05-05T03:54:14.339Z,14.09
2023-05-05T03:56:41.349Z,14.10
2023-05-05T03:59:08.721Z,14.12
2023-05-05T04:01:35.882Z,14.16
2023-05-05T04:04:02.740Z,14.08
2023-05-05T04:06:29.653Z,14.02
2023-05-05T04:08:56.527Z,13.98
2023-05-05T04:11:23.379Z,14.07
2023-05-05T04:13:50.195Z,13.98
2023-05-05T04:16:17.021Z,13.95
2023-05-05T04:18:44.038Z,14.00
2023-05-05T04:21:10.927Z,14.09
2023-05-05T04:23:37.677Z,14.05
2023-05-05T04:26:04.546Z,14.03
2023-05-05T04:28:31.465Z,14.10
2023-05-05T04:31:01.227Z,14.10
2023-05-05T04:33:28.418Z,14.13
2023-05-05T04:35:55.657Z,14.09
2023-05-05T04:38:22.558Z,14.00
2023-05-05T04:40:49.325Z,14.07
2023-05-05T04:43:16.088Z,14.13
2023-05-05T04:45:55.867Z,14.21
2023-05-05T04:48:22.813Z,14.28
2023-05-05T04:50:49.615Z,14.26
2023-05-05T04:53:16.618Z,14.25
2023-05-05T04:55:43.888Z,14.31
2023-05-05T04:58:13.377Z,14.36
2023-05-05T05:00:40.623Z,14.38
2023-05-05T05:03:08.169Z,14.45
2023-05-05T05:05:35.020Z,14.53
2023-05-05T05:08:01.758Z,14.59
2023-05-05T05:10:29.031Z,14.61
2023-05-05T05:12:56.226Z,14.60
2023-05-05T05:15:23.452Z,14.62
2023-05-05T05:17:50.245Z,14.69
2023-05-05T05:20:17.225Z,14.83
2023-05-05T05:22:43.973Z,14.91
2023-05-05T05:25:10.855Z,14.99
2023-05-05T05:27:37.771Z,15.04
2023-05-05T05:30:05.097Z,15.15
2023-05-05T05:32:32.075Z,15.20
2023-05-05T05:34:59.139Z,15.17
2023-05-05T05:37:30.868Z,15.25
2023-05-05T05:39:57.642Z,15.41
2023-05-05T05:42:24.482Z,15.53
2023-05-05T05:44:51.551Z,15.67
2023-05-05T05:47:18.603Z,15.82
2023-05-05T05:49:45.414Z,15.95
2023-05-05T05:52:12.221Z,16.06
2023-05-05T05:54:39.674Z,16.19
2023-05-05T05:57:06.939Z,16.27
2023-05-05T05:59:33.785Z,16.34
2023-05-05T06:02:01.464Z,16.43
2023-05-05T06:04:28.319Z,16.51
2023-05-05T06:06:56.030Z,16.59
2023-05-05T06:09:22.894Z,16.65
2023-05-05T06:11:49.792Z,16.71
2023-05-05T06:14:18.146Z,16.74
2023-05-05T06:16:46.290Z,16.74
2023-05-05T06:19:13.193Z,16.77
2023-05-05T06:21:40.093Z,16.78
2023-05-05T06:24:07.036Z,16.81
2023-05-05T06:26:33.892Z,16.84
2023-05-05T06:29:01.179Z,16.83
2023-05-05T06:31:28.185Z,16.76
2023-05-05T06:33:55.180Z,16.73
2023-05-05T06:36:22.040Z,16.73
2023-05-05T06:38:49.173Z,16.73
2023-05-05T06:41:16.162Z,16.80
2023-05-05T06:43:43.137Z,16.85
2023-05-05T06:46:10.028Z,16.94
2023-05-05T06:48:36.910Z,17.04
2023-05-05T06:51:04.926Z,17.14
2023-05-05T06:53:31.692Z,17.22
2023-05-05T06:55:58.476Z,17.26
2023-05-05T06:58:25.929Z,17.32
2023-05-05T07:00:54.034Z,17.38
2023-05-05T07:03:20.919Z,17.51
2023-05-05T07:05:50.757Z,17.62
2023-05-05T07:08:18.133Z,17.73
2023-05-05T07:10:44.939Z,17.81
2023-05-05T07:13:11.866Z,17.84
2023-05-05T07:15:46.302Z,17.88
2023-05-05T07:18:14.861Z,17.93
2023-05-05T07:20:42.200Z,18.03
2023-05-05T07:23:09.742Z,18.12
2023-05-05T07:25:37.104Z,18.17
2023-05-05T07:28:04.606Z,18.22
2023-05-05T07:30:31.430Z,18.25
2023-05-05T07:32:58.324Z,18.27
2023-05-05T07:35:25.281Z,18.29
2023-05-05T07:37:52.342Z,18.29
2023-05-05T07:40:19.272Z,18.29
2023-05-05T07:42:47.475Z,18.33
2023-05-05T07:45:14.414Z,18.39
2023-05-05T07:47:41.566Z,18.44
2023-05-05T07:50:09.160Z,18.49
2023-05-05T07:52:46.803Z,18.56
2023-05-05T07:55:18.709Z,18.62
2023-05-05T07:57:45.711Z,18.70
2023-05-05T08:00:13.639Z,18.83
2023-05-05T08:02:41.239Z,18.93
2023-05-05T08:05:09.027Z,19.08
2023-05-05T08:07:43.529Z,19.22
2023-05-05T08:10:13.546Z,19.42
2023-05-05T08:12:40.723Z,19.53
2023-05-05T08:15:09.195Z,19.52
2023-05-05T08:17:55.810Z,19.50
2023-05-05T08:20:22.873Z,19.60
2023-05-05T08:22:49.960Z,19.68
2023-05-05T08:25:16.796Z,19.77
2023-05-05T08:27:46.698Z,19.98
2023-05-05T08:30:14.168Z,20.15
2023-05-05T08:32:41.351Z,20.22
2023-05-05T08:35:09.190Z,20.25
2023-05-05T08:37:37.861Z,20.30
2023-05-05T08:40:06.108Z,20.36
2023-05-05T08:42:38.537Z,20.48
2023-05-05T08:45:11.108Z,20.49
2023-05-05T08:47:39.497Z,20.44
2023-05-05T08:50:10.988Z,20.37
2023-05-05T08:52:45.053Z,20.31
2023-05-05T08:55:26.843Z,20.24
2023-05-05T08:58:01.697Z,20.16
2023-05-05T09:00:29.281Z,20.09
2023-05-05T09:03:01.296Z,20.10
2023-05-05T09:05:28.357Z,20.09
2023-05-05T09:07:55.192Z,20.08
2023-05-05T09:10:22.130Z,20.08
2023-05-05T09:12:51.501Z,20.12
2023-05-05T09:15:18.806Z,20.12
2023-05-05T09:17:46.814Z,20.13
2023-05-05T09:20:14.878Z,20.14
2023-05-05T09:22:47.768Z,20.13
2023-05-05T09:25:18.133Z,20.11
2023-05-05T09:27:47.829Z,20.07
2023-05-05T09:30:24.943Z,20.00
2023-05-05T09:32:55.917Z,19.95
2023-05-05T09:35:23.786Z,19.86
2023-05-05T09:37:52.135Z,19.79
2023-05-05T09:40:21.579Z,19.70
2023-05-05T09:42:48.578Z,19.63
2023-05-05T09:45:18.543Z,19.58
2023-05-05T09:47:49.533Z,19.56
2023-05-05T09:50:20.957Z,19.54
2023-05-05T09:53:00.520Z,19.53
2023-05-05T09:55:28.318Z,19.53
2023-05-05T09:57:55.294Z,19.54
2023-05-05T10:00:22.713Z,19.55
2023-05-05T10:02:49.602Z,19.57
2023-05-05T10:05:18.550Z,19.66
2023-05-05T10:07:47.454Z,19.76
2023-05-05T10:10:17.387Z,19.86
2023-05-05T10:12:49.915Z,19.95
2023-05-05T10:15:17.678Z,19.97
2023-05-05T10:20:21.900Z,19.93
2023-05-05T10:22:53.283Z,19.88
2023-05-05T10:25:31.452Z,19.83
2023-05-05T10:28:01.297Z,19.80
2023-05-05T10:30:35.636Z,19.80
2023-05-05T10:35:58.309Z,19.99
2023-05-05T10:38:33.684Z,20.12
2023-05-05T10:41:02.157Z,20.20
2023-05-05T10:43:31.307Z,20.29
2023-05-05T10:45:59.620Z,20.39
2023-05-05T10:49:16.636Z,20.65
2023-05-05T10:52:08.723Z,20.87
2023-05-05T10:55:15.175Z,21.06
2023-05-05T10:57:45.133Z,21.14
2023-05-05T11:00:37.789Z,21.19
2023-05-05T11:03:16.976Z,21.11
2023-05-05T11:06:05.927Z,21.00
2023-05-05T11:08:40.031Z,20.97
2023-05-05T11:11:08.462Z,21.03
2023-05-05T11:13:35.374Z,21.12
2023-05-05T11:16:02.373Z,21.21
2023-05-05T11:18:45.379Z,21.47
2023-05-05T11:21:15.709Z,21.98
2023-05-05T11:23:50.226Z,22.26
2023-05-05T11:26:39.054Z,22.26
2023-05-05T11:29:06.344Z,22.13
2023-05-05T11:31:33.394Z,21.98
2023-05-05T11:34:28.936Z,21.65
2023-05-05T11:37:02.308Z,21.43
2023-05-05T11:39:44.095Z,21.35
2023-05-05T11:42:28.528Z,21.20
2023-05-05T11:44:56.061Z,21.09
2023-05-05T11:47:22.798Z,20.97
2023-05-05T11:49:50.095Z,20.85
2023-05-05T11:52:17.168Z,20.75
2023-05-05T11:54:50.349Z,20.64
2023-05-05T11:57:21.886Z,20.58
2023-05-05T12:00:06.591Z,20.52
2023-05-05T12:02:36.992Z,20.47
2023-05-05T12:05:10.390Z,20.44
2023-05-05T12:07:37.349Z,20.43
2023-05-05T12:10:08.280Z,20.46
2023-05-05T12:12:37.407Z,20.53
2023-05-05T12:15:05.427Z,20.57
2023-05-05T12:17:44.820Z,20.66
2023-05-05T12:20:13.318Z,20.74
2023-05-05T12:22:40.578Z,20.81
2023-05-05T12:25:08.773Z,20.85
2023-05-05T12:27:36.658Z,20.88
2023-05-05T12:30:18.803Z,21.24
2023-05-05T12:32:46.223Z,21.40
2023-05-05T12:35:14.436Z,21.30
2023-05-05T12:37:42.993Z,21.16
2023-05-05T12:40:42.570Z,21.08
2023-05-05T12:43:09.758Z,21.03
2023-05-05T12:45:36.691Z,20.99
2023-05-05T12:48:22.428Z,20.94
2023-05-05T12:50:49.495Z,20.87
2023-05-05T12:53:24.575Z,20.81
2023-05-05T12:55:52.038Z,20.84
2023-05-05T12:58:18.796Z,21.14
2023-05-05T13:00:45.838Z,21.59
2023-05-05T13:03:20.058Z,21.60
2023-05-05T13:05:47.117Z,21.51
2023-05-05T13:08:14.027Z,21.59
2023-05-05T13:10:58.152Z,21.97
2023-05-05T13:13:25.144Z,22.24
2023-05-05T13:15:52.160Z,22.17
2023-05-05T13:18:18.981Z,22.09
2023-05-05T13:20:45.794Z,21.96
2023-05-05T13:23:12.539Z,21.75
2023-05-05T13:25:39.338Z,21.54
2023-05-05T13:28:06.454Z,21.41
2023-05-05T13:30:33.275Z,21.36
2023-05-05T13:33:00.078Z,21.28
2023-05-05T13:35:27.223Z,21.26
2023-05-05T13:37:53.995Z,21.25
2023-05-05T13:40:20.945Z,21.19
2023-05-05T13:42:47.811Z,21.18
2023-05-05T13:45:14.685Z,21.12
2023-05-05T13:47:42.825Z,21.19
2023-05-05T13:50:10.213Z,21.37
2023-05-05T13:52:37.519Z,21.63
2023-05-05T13:55:05.582Z,21.88
2023-05-05T13:57:32.478Z,21.95
2023-05-05T13:59:59.492Z,21.93
2023-05-05T14:02:27.406Z,21.89
2023-05-05T14:04:54.234Z,21.82
2023-05-05T14:07:21.374Z,21.66
2023-05-05T14:09:48.238Z,21.59
2023-05-05T14:12:15.452Z,21.59
2023-05-05T14:14:42.238Z,21.59
2023-05-05T14:17:08.977Z,21.62
2023-05-05T14:19:36.400Z,21.76
2023-05-05T14:22:03.217Z,22.48
2023-05-05T14:24:30.048Z,23.29
2023-05-05T14:26:56.869Z,23.19
2023-05-05T14:29:23.739Z,22.71
2023-05-05T14:31:50.624Z,22.30
2023-05-05T14:34:17.531Z,22.03
2023-05-05T14:36:44.266Z,21.94
2023-05-05T14:39:11.287Z,21.84
2023-05-05T14:41:38.051Z,21.75
2023-05-05T14:44:05.247Z,21.68
2023-05-05T14:46:32.516Z,21.56
2023-05-05T14:48:59.633Z,21.46
2023-05-05T14:51:26.577Z,21.37
2023-05-05T14:53:53.393Z,21.25
2023-05-05T14:56:22.446Z,21.09
2023-05-05T14:58:49.517Z,21.00
2023-05-05T15:01:16.752Z,20.97
2023-05-05T15:03:43.997Z,20.94
2023-05-05T15:06:10.885Z,20.88
2023-05-05T15:08:39.049Z,20.82
2023-05-05T15:11:06.591Z,20.76
2023-05-05T15:13:38.501Z,20.67
2023-05-05T15:16:06.937Z,20.63
2023-05-05T15:18:33.877Z,20.55
2023-05-05T15:21:00.797Z,20.46
2023-05-05T15:23:27.628Z,20.43
2023-05-05T15:25:54.495Z,20.30
2023-05-05T15:28:21.497Z,20.21
2023-05-05T15:30:48.284Z,20.08
2023-05-05T15:33:15.136Z,20.01
2023-05-05T15:35:41.930Z,19.94
2023-05-05T15:38:08.769Z,19.89
2023-05-05T15:40:35.657Z,19.78
2023-05-05T15:43:02.588Z,19.69
2023-05-05T15:45:30.118Z,19.54
2023-05-05T15:47:57.505Z,19.33
2023-05-05T15:50:24.832Z,19.14
2023-05-05T15:52:51.698Z,18.97
2023-05-05T15:55:18.542Z,18.87
2023-05-05T15:57:45.329Z,18.51
2023-05-05T16:00:13.625Z,18.27
2023-05-05T16:02:40.883Z,17.96
2023-05-05T16:05:09.160Z,17.78
2023-05-05T16:07:36.246Z,17.60
2023-05-05T16:10:04.125Z,17.48
2023-05-05T16:12:31.098Z,17.41
2023-05-05T16:14:59.485Z,17.33
2023-05-05T16:17:26.401Z,17.25
2023-05-05T16:19:53.254Z,17.10
2023-05-05T16:22:20.939Z,17.18
2023-05-05T16:24:47.836Z,17.20
2023-05-05T16:27:14.992Z,17.24
2023-05-05T16:29:41.861Z,17.29
2023-05-05T16:32:08.767Z,17.35
2023-05-05T16:34:35.982Z,17.34
2023-05-05T16:37:03.351Z,17.32
2023-05-05T16:39:30.626Z,17.33
2023-05-05T16:41:57.370Z,17.29
2023-05-05T16:44:24.374Z,17.33
2023-05-05T16:46:51.443Z,17.32
2023-05-05T16:49:19.362Z,17.43
2023-05-05T16:51:46.337Z,17.52
2023-05-05T16:54:13.248Z,17.62
2023-05-05T16:56:39.997Z,17.69
2023-05-05T16:59:07.181Z,17.71
2023-05-05T17:01:34.777Z,17.67
2023-05-05T17:04:02.818Z,17.70
2023-05-05T17:06:33.354Z,17.71
2023-05-05T17:09:00.452Z,17.68
2023-05-05T17:11:27.476Z,17.62
2023-05-05T17:13:54.363Z,17.53
2023-05-05T17:16:21.383Z,17.48
2023-05-05T17:18:48.533Z,17.45
2023-05-05T17:21:15.414Z,17.42
2023-05-05T17:23:45.644Z,17.34
2023-05-05T17:26:12.576Z,17.34
2023-05-05T17:28:39.456Z,17.38
2023-05-05T17:31:07.999Z,17.40
2023-05-05T17:33:35.058Z,17.25
2023-05-05T17:36:02.003Z,17.23
2023-05-05T17:38:28.800Z,17.19
2023-05-05T17:40:55.894Z,17.16
2023-05-05T17:43:22.932Z,17.15
2023-05-05T17:45:49.810Z,17.13
2023-05-05T17:48:16.824Z,17.08
2023-05-05T17:50:43.714Z,17.10
2023-05-05T17:53:11.283Z,17.15
2023-05-05T17:55:38.192Z,17.13
2023-05-05T17:58:05.022Z,17.09
2023-05-05T18:00:32.298Z,17.02
2023-05-05T18:03:00.852Z,16.90
2023-05-05T18:05:27.949Z,16.80
2023-05-05T18:07:54.712Z,16.71
2023-05-05T18:10:21.562Z,16.68
2023-05-05T18:12:48.408Z,16.64
2023-05-05T18:15:15.435Z,16.65
2023-05-05T18:17:42.690Z,16.63
2023-05-05T18:20:10.531Z,16.59
2023-05-05T18:22:37.415Z,16.61
2023-05-05T18:25:07.230Z,16.60
2023-05-05T18:27:35.979Z,16.58
2023-05-05T18:30:05.001Z,16.58
2023-05-05T18:32:32.509Z,16.60
2023-05-05T18:34:59.368Z,16.66
2023-05-05T18:37:31.301Z,16.72
2023-05-05T18:39:58.422Z,16.77
2023-05-05T18:42:25.568Z,16.77
2023-05-05T18:44:55.504Z,16.75
2023-05-05T18:47:23.697Z,16.73
2023-05-05T18:49:50.466Z,16.72
2023-05-05T18:52:17.271Z,16.70
2023-05-05T18:54:44.101Z,16.74
2023-05-05T18:57:10.957Z,16.71
2023-05-05T18:59:37.713Z,16.68
2023-05-05T19:02:05.049Z,16.66
2023-05-05T19:04:32.697Z,16.67
2023-05-05T19:07:00.129Z,16.67
2023-05-05T19:09:27.707Z,16.72
2023-05-05T19:11:54.689Z,16.74
2023-05-05T19:14:22.680Z,16.72
2023-05-05T19:16:49.629Z,16.68
2023-05-05T19:19:17.042Z,16.64
2023-05-05T19:21:43.910Z,16.61
2023-05-05T19:24:12.311Z,16.55
2023-05-05T19:26:40.414Z,16.56
2023-05-05T19:29:07.697Z,16.55
2023-05-05T19:31:35.035Z,16.47
2023-05-05T19:34:04.497Z,16.49
2023-05-05T19:36:32.076Z,16.48
2023-05-05T19:39:04.850Z,16.53
2023-05-05T19:41:31.884Z,16.48
2023-05-05T19:43:59.074Z,16.37
2023-05-05T19:46:26.739Z,16.30
2023-05-05T19:48:53.825Z,16.32
2023-05-05T19:51:20.891Z,16.36
2023-05-05T19:53:47.713Z,16.37
2023-05-05T19:56:14.658Z,16.44
2023-05-05T19:59:01.977Z,16.41
2023-05-05T20:01:29.761Z,16.44
2023-05-05T20:03:57.085Z,16.45
2023-05-05T20:06:27.071Z,16.44
2023-05-05T20:08:55.216Z,16.39
2023-05-05T20:11:22.686Z,16.40
2023-05-05T20:13:53.156Z,16.34
2023-05-05T20:16:21.587Z,16.33
2023-05-05T20:18:48.840Z,16.30
2023-05-05T20:21:16.824Z,16.25
2023-05-05T20:23:46.099Z,16.21
2023-05-05T20:26:13.481Z,16.17
2023-05-05T20:28:43.295Z,16.11
2023-05-05T20:31:13.382Z,16.14
2023-05-05T20:33:40.537Z,16.14
2023-05-05T20:36:07.564Z,16.15
2023-05-05T20:38:34.635Z,16.12
2023-05-05T20:41:01.573Z,16.13
2023-05-05T20:43:28.513Z,16.12
2023-05-05T20:45:57.651Z,16.14
2023-05-05T20:48:24.522Z,16.12
2023-05-05T20:50:52.379Z,16.09
2023-05-05T20:53:20.711Z,16.12
2023-05-05T20:55:47.475Z,16.10
2023-05-05T20:58:14.237Z,16.06
2023-05-05T21:00:42.474Z,16.03
2023-05-05T21:03:09.395Z,16.08
2023-05-05T21:05:38.928Z,16.11
2023-05-05T21:08:05.965Z,16.08
2023-05-05T21:10:33.829Z,16.00
2023-05-05T21:13:02.832Z,15.96
2023-05-05T21:15:30.390Z,15.96
2023-05-05T21:17:57.578Z,15.91
2023-05-05T21:20:26.218Z,15.90
2023-05-05T21:22:53.086Z,15.89
2023-05-05T21:25:21.742Z,15.90
2023-05-05T21:27:49.274Z,15.89
2023-05-05T21:30:17.281Z,15.85
2023-05-05T21:32:44.851Z,15.85
2023-05-05T21:35:12.506Z,15.77
2023-05-05T21:37:40.321Z,15.72
2023-05-05T21:40:13.441Z,15.68
2023-05-05T21:42:44.667Z,15.59
2023-05-05T21:45:12.318Z,15.57
2023-05-05T21:47:39.310Z,15.59
2023-05-05T21:50:07.100Z,15.53
2023-05-05T21:52:34.132Z,15.53
2023-05-05T21:55:01.062Z,15.47
2023-05-05T21:57:27.820Z,15.37
2023-05-05T21:59:54.873Z,15.29
2023-05-05T22:02:24.782Z,15.31
2023-05-05T22:04:55.304Z,15.29
2023-05-05T22:07:22.137Z,15.24
2023-05-05T22:09:52.663Z,15.15
2023-05-05T22:12:22.037Z,15.15
2023-05-05T22:14:48.788Z,15.11
2023-05-05T22:17:15.638Z,15.10
2023-05-05T22:19:42.442Z,15.10
2023-05-05T22:22:09.343Z,15.07
2023-05-05T22:24:36.532Z,15.03
2023-05-05T22:27:03.447Z,15.05
2023-05-05T22:29:30.320Z,15.03
2023-05-05T22:31:57.173Z,15.07
2023-05-05T22:34:25.959Z,15.06
2023-05-05T22:36:52.659Z,15.05
2023-05-05T22:39:19.548Z,15.02
2023-05-05T22:41:46.920Z,14.93
2023-05-05T22:44:16.922Z,14.85
2023-05-05T22:46:44.084Z,14.77
2023-05-05T22:49:10.965Z,14.80
2023-05-05T22:51:37.784Z,14.77
2023-05-05T22:54:04.710Z,14.76
2023-05-05T22:56:31.719Z,14.68
2023-05-05T22:58:58.545Z,14.67
2023-05-05T23:01:25.960Z,14.69
2023-05-05T23:03:52.956Z,14.70
2023-05-05T23:06:19.812Z,14.63
2023-05-05T23:08:49.131Z,14.56
2023-05-05T23:11:16.384Z,14.53
2023-05-05T23:13:43.132Z,14.55
2023-05-05T23:16:12.942Z,14.56
2023-05-05T23:18:43.112Z,14.46
2023-05-05T23:21:10.565Z,14.46
2023-05-05T23:23:37.648Z,14.37
2023-05-05T23:26:07.580Z,14.31
2023-05-05T23:28:34.506Z,14.29
2023-05-05T23:31:01.479Z,14.22
2023-05-05T23:33:28.330Z,14.14
2023-05-05T23:35:55.174Z,14.14
2023-05-05T23:38:22.076Z,14.07
2023-05-05T23:40:48.838Z,14.05
2023-05-05T23:43:15.822Z,14.08
2023-05-05T23:45:42.633Z,14.06
2023-05-05T23:48:09.402Z,13.99
2023-05-05T23:50:36.221Z,13.99
2023-05-05T23:53:03.223Z,14.02
2023-05-05T23:55:30.329Z,13.98
2023-05-05T23:57:57.220Z,13.89
